createdAt,value
2018-10-21T00:00:38.480Z,90.34
2018-10-21T00:03:05.777Z,90.49
2018-10-21T00:05:32.861Z,89.87
2018-10-21T00:08:00.062Z,90.03
2018-10-21T00:10:27.241Z,91.54
2018-10-21T00:12:54.347Z,90.19
2018-10-21T00:15:21.583Z,89.94
2018-10-21T00:17:48.808Z,90.20
2018-10-21T00:20:16.160Z,92.46
2018-10-21T00:22:43.298Z,91.82
2018-10-21T00:25:10.493Z,93.14
2018-10-21T00:27:37.692Z,94.53
2018-10-21T00:30:05.228Z,95.43
2018-10-21T00:32:38.077Z,94.03
2018-10-21T00:35:05.584Z,94.06
2018-10-21T00:37:32.733Z,92.57
2018-10-21T00:39:59.939Z,92.61
2018-10-21T00:42:27.145Z,92.51
2018-10-21T00:44:54.353Z,92.34
2018-10-21T00:47:21.575Z,92.43
2018-10-21T00:49:48.744Z,92.76
2018-10-21T00:52:15.957Z,92.17
2018-10-21T00:54:43.108Z,91.94
2018-10-21T00:57:10.318Z,91.70
2018-10-21T00:59:44.348Z,91.72
2018-10-21T01:02:11.484Z,91.75
2018-10-21T01:04:38.686Z,91.41
2018-10-21T01:07:06.220Z,91.59
2018-10-21T01:09:33.381Z,92.05
2018-10-21T01:12:00.509Z,92.61
2018-10-21T01:14:27.702Z,92.81
2018-10-21T01:16:54.898Z,93.90
2018-10-21T01:19:22.105Z,93.16
2018-10-21T01:21:49.284Z,92.57
2018-10-21T01:24:16.612Z,93.26
2018-10-21T01:26:43.796Z,94.72
2018-10-21T01:29:10.932Z,95.70
2018-10-21T01:31:38.127Z,95.60
2018-10-21T01:34:05.317Z,95.43
2018-10-21T01:36:32.607Z,95.89
2018-10-21T01:38:59.671Z,95.31
2018-10-21T01:41:26.788Z,95.07
2018-10-21T01:43:53.996Z,94.61
2018-10-21T01:46:21.156Z,94.63
2018-10-21T01:48:48.328Z,94.24
2018-10-21T01:51:15.490Z,93.79
2018-10-21T01:53:42.627Z,94.04
2018-10-21T01:56:09.787Z,93.87
2018-10-21T01:58:36.944Z,93.93
2018-10-21T02:01:04.287Z,94.57
2018-10-21T02:03:31.443Z,93.89
2018-10-21T02:05:58.624Z,94.51
2018-10-21T02:08:25.804Z,94.57
2018-10-21T02:10:52.948Z,94.28
2018-10-21T02:13:20.193Z,94.50
2018-10-21T02:15:47.423Z,94.44
2018-10-21T02:18:14.727Z,93.98
2018-10-21T02:20:41.877Z,94.57
2018-10-21T02:23:09.079Z,95.16
2018-10-21T02:25:36.188Z,95.15
2018-10-21T02:28:03.358Z,96.29
2018-10-21T02:30:31.105Z,96.04
2018-10-21T02:32:59.019Z,96.02
2018-10-21T02:35:26.137Z,95.41
2018-10-21T02:37:53.909Z,96.03
2018-10-21T02:41:41.038Z,95.83
2018-10-21T02:44:15.596Z,96.12
2018-10-21T02:46:43.296Z,95.95
2018-10-21T02:49:11.284Z,95.91
2018-10-21T02:51:38.475Z,95.88
2018-10-21T02:54:05.980Z,95.78
2018-10-21T02:56:33.136Z,95.73
2018-10-21T02:59:00.344Z,95.64
2018-10-21T03:01:27.472Z,95.52
2018-10-21T03:03:54.685Z,96.33
2018-10-21T03:06:21.863Z,96.10
2018-10-21T03:08:49.012Z,96.51
2018-10-21T03:11:16.161Z,96.58
2018-10-21T03:13:43.363Z,96.77
2018-10-21T03:16:10.554Z,96.32
2018-10-21T03:18:37.757Z,96.49
2018-10-21T03:21:05.155Z,96.04
2018-10-21T03:23:32.906Z,96.13
2018-10-21T03:26:00.376Z,96.34
2018-10-21T03:28:27.533Z,96.09
2018-10-21T03:30:54.732Z,95.95
2018-10-21T03:33:21.964Z,96.41
2018-10-21T03:35:55.973Z,96.19
2018-10-21T03:38:23.156Z,95.47
2018-10-21T03:40:50.288Z,96.10
2018-10-21T03:43:17.483Z,95.24
2018-10-21T03:45:44.703Z,95.03
2018-10-21T03:48:11.881Z,95.37
2018-10-21T03:50:39.041Z,95.12
2018-10-21T03:53:06.181Z,95.04
2018-10-21T03:55:36.700Z,95.72
2018-10-21T03:58:04.561Z,96.18
2018-10-21T04:00:31.708Z,95.80
2018-10-21T04:02:58.879Z,95.60
2018-10-21T04:05:26.075Z,96.00
2018-10-21T04:07:53.300Z,95.41
2018-10-21T04:10:20.456Z,95.21
2018-10-21T04:12:47.604Z,95.19
2018-10-21T04:15:14.816Z,94.90
2018-10-21T04:17:41.996Z,94.44
2018-10-21T04:20:09.128Z,93.97
2018-10-21T04:23:08.461Z,94.13
2018-10-21T04:25:36.809Z,94.36
2018-10-21T04:28:04.500Z,94.06
2018-10-21T04:30:33.473Z,94.55
2018-10-21T04:34:05.596Z,95.59
2018-10-21T04:36:33.552Z,96.46
2018-10-21T04:40:20.472Z,97.89
2018-10-21T04:42:48.011Z,97.97
2018-10-21T04:45:16.516Z,99.16
2018-10-21T04:47:43.676Z,98.52
2018-10-21T04:50:11.488Z,98.25
2018-10-21T04:52:38.701Z,98.06
2018-10-21T04:55:07.722Z,97.97
2018-10-21T04:57:35.616Z,96.80
2018-10-21T05:00:03.157Z,96.74
2018-10-21T05:02:31.117Z,96.39
2018-10-21T05:04:58.332Z,95.78
2018-10-21T05:07:25.555Z,95.54
2018-10-21T05:09:52.835Z,95.11
2018-10-21T05:12:20.088Z,95.17
2018-10-21T05:14:47.298Z,97.17
2018-10-21T05:17:14.425Z,97.11
2018-10-21T05:19:41.639Z,96.71
2018-10-21T05:22:08.831Z,96.98
2018-10-21T05:24:36.407Z,96.71
2018-10-21T05:27:04.196Z,96.16
2018-10-21T05:29:31.575Z,95.78
2018-10-21T05:31:58.712Z,96.58
2018-10-21T05:34:25.957Z,96.49
2018-10-21T05:36:53.052Z,96.12
2018-10-21T05:39:20.217Z,96.05
2018-10-21T05:41:47.351Z,95.46
2018-10-21T05:44:14.516Z,95.35
2018-10-21T05:46:50.647Z,95.35
2018-10-21T05:49:17.724Z,95.06
2018-10-21T05:51:46.287Z,95.71
2018-10-21T05:54:14.532Z,95.27
2018-10-21T05:56:44.061Z,95.42
2018-10-21T05:59:11.489Z,95.57
2018-10-21T06:01:39.355Z,96.03
2018-10-21T06:04:07.151Z,95.53
2018-10-21T06:06:34.325Z,95.32
2018-10-21T06:09:01.476Z,95.70
2018-10-21T06:11:28.668Z,96.83
2018-10-21T06:13:55.800Z,98.18
2018-10-21T06:16:23.037Z,97.26
2018-10-21T06:18:50.044Z,96.95
2018-10-21T06:21:17.272Z,96.67
2018-10-21T06:23:44.525Z,96.58
2018-10-21T06:26:11.676Z,96.41
2018-10-21T06:28:38.821Z,96.09
2018-10-21T06:31:06.238Z,96.33
2018-10-21T06:33:33.454Z,96.25
2018-10-21T06:36:00.560Z,95.78
2018-10-21T06:38:27.704Z,95.79
2018-10-21T06:40:54.860Z,96.37
2018-10-21T06:43:22.055Z,96.76
2018-10-21T06:45:49.216Z,95.55
2018-10-21T06:48:16.452Z,95.64
2018-10-21T06:50:43.644Z,95.20
2018-10-21T06:53:10.861Z,96.66
2018-10-21T06:55:38.024Z,96.33
2018-10-21T06:58:05.388Z,96.47
2018-10-21T07:00:32.612Z,95.18
2018-10-21T07:02:59.732Z,93.97
2018-10-21T07:05:38.296Z,93.88
2018-10-21T07:08:05.572Z,94.28
2018-10-21T07:10:32.788Z,94.03
2018-10-21T07:12:59.909Z,94.71
2018-10-21T07:15:27.168Z,95.17
2018-10-21T07:17:54.306Z,94.56
2018-10-21T07:20:21.517Z,95.18
2018-10-21T07:22:48.724Z,95.52
2018-10-21T07:25:15.820Z,95.77
2018-10-21T07:27:43.019Z,96.06
2018-10-21T07:30:11.500Z,95.60
2018-10-21T07:32:39.475Z,94.71
2018-10-21T07:35:07.628Z,94.69
2018-10-21T07:37:34.832Z,93.61
2018-10-21T07:40:02.237Z,93.66
2018-10-21T07:42:29.481Z,93.45
2018-10-21T07:44:56.647Z,93.67
2018-10-21T07:47:23.757Z,93.17
2018-10-21T07:49:50.961Z,94.20
2018-10-21T07:52:18.177Z,92.39
2018-10-21T07:54:46.101Z,93.27
2018-10-21T07:57:14.016Z,92.73
2018-10-21T07:59:41.306Z,92.21
2018-10-21T08:02:08.408Z,90.94
2018-10-21T08:04:35.614Z,89.25
2018-10-21T08:07:14.228Z,89.51
2018-10-21T08:09:41.425Z,88.40
2018-10-21T08:12:08.577Z,88.09
2018-10-21T08:14:35.816Z,87.52
2018-10-21T08:17:02.952Z,86.74
2018-10-21T08:19:30.080Z,85.25
2018-10-21T08:21:57.248Z,85.07
2018-10-21T08:24:24.454Z,85.73
2018-10-21T08:26:51.602Z,85.55
2018-10-21T08:29:18.774Z,85.68
2018-10-21T08:31:45.971Z,85.90
2018-10-21T08:34:13.190Z,85.61
2018-10-21T08:36:41.414Z,85.93
2018-10-21T08:39:08.623Z,86.91
2018-10-21T08:41:35.811Z,84.80
2018-10-21T08:44:03.000Z,85.03
2018-10-21T08:46:30.222Z,84.84
2018-10-21T08:48:57.436Z,85.30
2018-10-21T08:51:24.651Z,86.45
2018-10-21T08:53:51.855Z,86.48
2018-10-21T08:56:19.110Z,84.00
2018-10-21T08:58:46.244Z,84.80
2018-10-21T09:01:13.430Z,83.29
2018-10-21T09:03:40.597Z,82.22
2018-10-21T09:06:07.755Z,81.21
2018-10-21T09:08:34.908Z,80.48
2018-10-21T09:11:02.139Z,80.83
2018-10-21T09:13:29.376Z,81.16
2018-10-21T09:15:56.555Z,80.34
2018-10-21T09:18:23.675Z,79.08
2018-10-21T09:20:50.841Z,77.56
2018-10-21T09:23:18.027Z,76.21
2018-10-21T09:25:45.176Z,74.97
2018-10-21T09:28:12.407Z,74.59
2018-10-21T09:30:39.539Z,74.09
2018-10-21T09:33:17.419Z,75.32
2018-10-21T09:35:44.606Z,75.01
2018-10-21T09:38:11.783Z,75.07
2018-10-21T09:40:39.021Z,76.09
2018-10-21T09:43:06.788Z,75.43
2018-10-21T09:45:33.962Z,76.20
2018-10-21T09:48:01.128Z,74.92
2018-10-21T09:50:28.341Z,74.61
2018-10-21T09:52:55.648Z,74.87
2018-10-21T09:55:22.876Z,74.90
2018-10-21T09:57:50.204Z,74.91
2018-10-21T10:00:23.010Z,73.85
2018-10-21T10:02:55.946Z,74.03
2018-10-21T10:05:23.505Z,73.27
2018-10-21T10:07:50.740Z,71.17
2018-10-21T10:10:17.992Z,71.08
2018-10-21T10:12:46.919Z,68.83
2018-10-21T10:15:14.105Z,67.35
2018-10-21T10:17:41.332Z,66.16
2018-10-21T10:20:09.527Z,66.68
2018-10-21T10:22:36.709Z,64.44
2018-10-21T10:25:04.755Z,63.92
2018-10-21T10:27:31.955Z,63.95
2018-10-21T10:29:59.149Z,64.21
2018-10-21T10:32:26.294Z,64.35
2018-10-21T10:34:53.458Z,63.64
2018-10-21T10:37:20.712Z,62.71
2018-10-21T10:39:47.885Z,62.56
2018-10-21T10:42:15.137Z,61.96
2018-10-21T10:44:42.232Z,60.54
2018-10-21T10:47:09.428Z,61.34
2018-10-21T10:49:36.631Z,60.21
2018-10-21T10:52:03.875Z,60.00
2018-10-21T10:54:31.076Z,60.25
2018-10-21T10:56:58.271Z,59.59
2018-10-21T10:59:25.439Z,58.33
2018-10-21T11:01:52.668Z,57.69
2018-10-21T11:04:19.877Z,57.61
2018-10-21T11:06:47.072Z,58.72
2018-10-21T11:09:14.216Z,57.99
2018-10-21T11:11:41.367Z,56.67
2018-10-21T11:14:08.649Z,57.20
2018-10-21T11:16:35.844Z,55.99
2018-10-21T11:19:03.042Z,55.86
2018-10-21T11:21:30.287Z,55.19
2018-10-21T11:23:57.464Z,56.13
2018-10-21T11:26:24.652Z,54.79
2018-10-21T11:28:51.836Z,53.71
2018-10-21T11:31:19.019Z,51.90
2018-10-21T11:33:46.277Z,51.51
2018-10-21T11:36:13.433Z,50.99
2018-10-21T11:38:40.635Z,51.23
2018-10-21T11:41:07.777Z,53.53
2018-10-21T11:43:34.920Z,53.68
2018-10-21T11:46:02.245Z,53.73
2018-10-21T11:48:29.505Z,53.12
2018-10-21T11:50:56.636Z,53.33
2018-10-21T11:53:23.797Z,53.45
2018-10-21T11:55:50.964Z,54.68
2018-10-21T11:58:18.169Z,55.18
2018-10-21T12:00:46.022Z,54.68
2018-10-21T12:03:13.208Z,54.09
2018-10-21T12:05:41.119Z,54.84
2018-10-21T12:08:08.478Z,52.13
2018-10-21T12:10:35.632Z,53.17
2018-10-21T12:13:02.859Z,53.90
2018-10-21T12:15:30.028Z,53.45
2018-10-21T12:17:57.161Z,49.85
2018-10-21T12:20:24.293Z,48.12
2018-10-21T12:22:51.534Z,50.41
2018-10-21T12:25:18.703Z,51.95
2018-10-21T12:27:45.810Z,50.53
2018-10-21T12:30:12.984Z,45.85
2018-10-21T12:32:40.179Z,45.15
2018-10-21T12:35:08.679Z,45.14
2018-10-21T12:37:35.775Z,44.23
2018-10-21T12:40:03.401Z,44.35
2018-10-21T12:42:30.540Z,42.12
2018-10-21T12:44:57.700Z,43.19
2018-10-21T12:47:24.955Z,45.36
2018-10-21T12:49:52.113Z,46.19
2018-10-21T12:52:19.305Z,47.00
2018-10-21T12:54:46.650Z,47.98
2018-10-21T12:57:13.844Z,49.11
2018-10-21T12:59:40.991Z,47.10
2018-10-21T13:02:08.200Z,46.14
2018-10-21T13:04:35.363Z,44.99
2018-10-21T13:07:02.651Z,44.26
2018-10-21T13:09:29.883Z,46.21
2018-10-21T13:11:57.078Z,48.25
2018-10-21T13:14:24.236Z,46.54
2018-10-21T13:16:51.393Z,44.51
2018-10-21T13:19:18.623Z,42.81
2018-10-21T13:21:45.739Z,41.54
2018-10-21T13:24:12.883Z,42.44
2018-10-21T13:26:40.051Z,41.72
2018-10-21T13:29:07.193Z,42.34
2018-10-21T13:31:34.500Z,40.41
2018-10-21T13:34:01.657Z,40.89
2018-10-21T13:36:28.855Z,39.50
2018-10-21T13:38:56.044Z,40.30
2018-10-21T13:41:23.214Z,38.87
2018-10-21T13:43:50.384Z,37.11
2018-10-21T13:46:17.589Z,37.47
2018-10-21T13:48:44.701Z,36.89
2018-10-21T13:51:11.878Z,34.68
2018-10-21T13:53:39.062Z,34.53
2018-10-21T13:56:06.210Z,34.32
2018-10-21T13:58:33.379Z,35.20
2018-10-21T14:01:00.651Z,36.27
2018-10-21T14:03:27.784Z,35.96
2018-10-21T14:05:54.900Z,36.62
2018-10-21T14:08:22.129Z,36.64
2018-10-21T14:10:49.319Z,36.09
2018-10-21T14:15:43.177Z,35.01
2018-10-21T14:18:10.383Z,34.36
2018-10-21T14:20:37.554Z,34.29
2018-10-21T14:23:04.757Z,34.26
2018-10-21T14:25:31.901Z,33.91
2018-10-21T14:27:59.133Z,34.95
2018-10-21T14:30:26.312Z,34.56
2018-10-21T14:32:53.410Z,33.61
2018-10-21T14:35:20.657Z,33.25
2018-10-21T14:37:48.090Z,35.28
2018-10-21T14:40:15.185Z,35.01
2018-10-21T14:42:42.431Z,34.28
2018-10-21T14:45:10.918Z,33.51
2018-10-21T14:47:38.544Z,34.72
2018-10-21T14:50:05.964Z,35.25
2018-10-21T14:52:33.160Z,33.24
2018-10-21T14:55:00.377Z,34.23
2018-10-21T14:57:27.557Z,33.41
2018-10-21T14:59:54.697Z,34.03
2018-10-21T15:02:21.866Z,34.47
2018-10-21T15:04:49.051Z,36.06
2018-10-21T15:07:16.217Z,36.77
2018-10-21T15:09:43.446Z,36.75
2018-10-21T15:12:10.607Z,38.51
2018-10-21T15:14:37.791Z,40.53
2018-10-21T15:17:05.260Z,39.86
2018-10-21T15:19:32.473Z,42.72
2018-10-21T15:21:59.715Z,43.54
2018-10-21T15:24:26.908Z,46.07
2018-10-21T15:26:54.077Z,45.08
2018-10-21T15:29:21.253Z,46.83
2018-10-21T15:31:48.417Z,46.87
2018-10-21T15:34:15.677Z,47.04
2018-10-21T15:36:42.744Z,48.19
2018-10-21T15:39:10.597Z,47.85
2018-10-21T15:41:38.154Z,49.18
2018-10-21T15:44:05.683Z,49.91
2018-10-21T15:46:32.824Z,50.17
2018-10-21T15:49:00.165Z,51.36
2018-10-21T15:51:27.450Z,51.52
2018-10-21T15:53:54.718Z,51.75
2018-10-21T15:56:21.909Z,51.91
2018-10-21T15:58:49.065Z,52.68
2018-10-21T16:01:16.249Z,53.05
2018-10-21T16:03:43.357Z,53.45
2018-10-21T16:06:10.489Z,53.97
2018-10-21T16:08:37.644Z,54.76
2018-10-21T16:11:05.087Z,55.06
2018-10-21T16:13:32.249Z,55.00
2018-10-21T16:15:59.451Z,55.81
2018-10-21T16:18:26.636Z,57.50
2018-10-21T16:20:53.888Z,57.57
2018-10-21T16:23:21.048Z,57.35
2018-10-21T16:25:48.233Z,57.84
2018-10-21T16:28:15.431Z,58.42
2018-10-21T16:30:42.639Z,61.65
2018-10-21T16:33:09.832Z,60.47
2018-10-21T16:35:36.988Z,60.34
2018-10-21T16:38:04.128Z,60.23
2018-10-21T16:40:31.311Z,59.70
2018-10-21T16:42:58.509Z,60.29
2018-10-21T16:45:25.708Z,60.62
2018-10-21T16:47:52.974Z,60.80
2018-10-21T16:50:20.076Z,63.18
2018-10-21T16:52:47.338Z,63.87
2018-10-21T16:55:15.267Z,64.03
2018-10-21T16:57:42.453Z,64.45
2018-10-21T17:00:14.597Z,66.55
2018-10-21T17:02:42.210Z,67.38
2018-10-21T17:05:09.741Z,68.29
2018-10-21T17:07:36.832Z,68.08
2018-10-21T17:10:04.630Z,68.28
2018-10-21T17:12:31.433Z,67.25
2018-10-21T17:14:58.600Z,68.24
2018-10-21T17:17:25.737Z,69.12
2018-10-21T17:19:52.860Z,68.74
2018-10-21T17:22:20.014Z,69.29
2018-10-21T17:24:47.641Z,69.84
2018-10-21T17:27:14.864Z,74.14
2018-10-21T17:29:41.994Z,74.10
2018-10-21T17:32:09.174Z,72.73
2018-10-21T17:34:36.350Z,72.09
2018-10-21T17:37:03.842Z,71.89
2018-10-21T17:39:31.023Z,71.86
2018-10-21T17:41:58.184Z,72.37
2018-10-21T17:44:25.423Z,73.55
2018-10-21T17:46:52.579Z,72.78
2018-10-21T17:49:19.714Z,75.29
2018-10-21T17:51:46.868Z,74.35
2018-10-21T17:54:14.043Z,74.64
2018-10-21T17:56:46.913Z,74.38
2018-10-21T17:59:14.077Z,74.58
2018-10-21T18:01:41.308Z,75.04
2018-10-21T18:04:08.534Z,73.81
2018-10-21T18:06:35.795Z,73.64
2018-10-21T18:09:03.101Z,73.71
2018-10-21T18:11:30.284Z,74.74
2018-10-21T18:13:57.503Z,78.48
2018-10-21T18:16:24.621Z,77.02
2018-10-21T18:18:51.936Z,76.51
2018-10-21T18:21:19.134Z,76.26
2018-10-21T18:23:46.359Z,76.53
2018-10-21T18:26:13.854Z,76.39
2018-10-21T18:28:40.976Z,76.97
2018-10-21T18:31:08.175Z,77.14
2018-10-21T18:33:35.287Z,76.27
2018-10-21T18:36:03.380Z,77.37
2018-10-21T18:38:30.596Z,78.78
2018-10-21T18:40:57.933Z,81.56
2018-10-21T18:43:25.173Z,80.23
2018-10-21T18:45:52.370Z,79.24
2018-10-21T18:48:19.539Z,79.51
2018-10-21T18:50:46.745Z,80.01
2018-10-21T18:53:13.966Z,79.98
2018-10-21T18:55:41.191Z,80.61
2018-10-21T18:58:08.380Z,79.90
2018-10-21T19:00:35.540Z,78.74
2018-10-21T19:03:02.720Z,78.63
2018-10-21T19:05:29.916Z,79.02
2018-10-21T19:07:57.110Z,78.56
2018-10-21T19:10:24.336Z,78.33
2018-10-21T19:13:00.051Z,79.03
2018-10-21T19:15:18.622Z,80.45
2018-10-21T19:17:45.837Z,81.57
2018-10-21T19:20:15.141Z,80.55
2018-10-21T19:22:42.344Z,80.26
2018-10-21T19:25:12.241Z,80.50
2018-10-21T19:27:39.405Z,80.08
2018-10-21T19:30:07.713Z,80.00
2018-10-21T19:32:34.896Z,79.94
2018-10-21T19:35:02.193Z,79.63
2018-10-21T19:37:30.233Z,79.33
2018-10-21T19:39:57.436Z,79.75
2018-10-21T19:42:24.660Z,81.09
2018-10-21T19:44:51.840Z,80.41
2018-10-21T19:47:19.045Z,80.64
2018-10-21T19:49:46.258Z,80.41
2018-10-21T19:52:13.440Z,80.12
2018-10-21T19:54:40.543Z,79.77
2018-10-21T19:57:07.712Z,79.63
2018-10-21T19:59:34.888Z,79.01
2018-10-21T20:02:02.051Z,80.78
2018-10-21T20:04:29.218Z,80.22
2018-10-21T20:06:56.732Z,81.33
2018-10-21T20:09:23.903Z,81.03
2018-10-21T20:11:51.032Z,80.52
2018-10-21T20:14:18.165Z,81.46
2018-10-21T20:16:45.377Z,81.04
2018-10-21T20:19:12.688Z,81.09
2018-10-21T20:21:39.797Z,81.64
2018-10-21T20:24:06.992Z,82.57
2018-10-21T20:26:34.205Z,81.90
2018-10-21T20:29:01.329Z,81.24
2018-10-21T20:31:28.604Z,80.63
2018-10-21T20:33:55.758Z,81.22
2018-10-21T20:36:22.951Z,80.99
2018-10-21T20:38:50.073Z,81.55
2018-10-21T20:41:17.296Z,82.02
2018-10-21T20:43:44.462Z,81.12
2018-10-21T20:46:11.704Z,83.24
2018-10-21T20:48:38.859Z,83.91
2018-10-21T20:51:06.277Z,83.86
2018-10-21T20:53:33.259Z,83.15
2018-10-21T20:56:00.562Z,82.21
2018-10-21T20:58:27.821Z,81.91
2018-10-21T21:00:54.890Z,81.57
2018-10-21T21:03:22.042Z,82.30
2018-10-21T21:05:49.224Z,82.36
2018-10-21T21:08:16.477Z,82.34
2018-10-21T21:10:43.561Z,82.16
2018-10-21T21:13:10.787Z,83.35
2018-10-21T21:15:37.932Z,82.81
2018-10-21T21:18:05.160Z,82.63
2018-10-21T21:20:32.349Z,83.06
2018-10-21T21:22:59.481Z,83.22
2018-10-21T21:25:26.613Z,83.04
2018-10-21T21:27:53.871Z,84.40
2018-10-21T21:30:21.153Z,83.06
2018-10-21T21:32:48.194Z,83.26
2018-10-21T21:35:15.377Z,84.38
2018-10-21T21:37:42.612Z,84.04
2018-10-21T21:40:09.986Z,83.73
2018-10-21T21:42:37.701Z,83.85
2018-10-21T21:45:05.182Z,82.33
2018-10-21T21:47:32.373Z,82.27
2018-10-21T21:49:59.506Z,81.97
2018-10-21T21:52:26.668Z,82.05
2018-10-21T21:54:53.859Z,82.46
2018-10-21T21:57:21.134Z,84.04
2018-10-21T21:59:48.249Z,83.55
2018-10-21T22:02:15.475Z,82.85
2018-10-21T22:04:42.663Z,82.61
2018-10-21T22:07:09.813Z,83.66
2018-10-21T22:09:37.001Z,84.01
2018-10-21T22:12:04.276Z,84.86
2018-10-21T22:14:31.377Z,84.11
2018-10-21T22:16:58.517Z,83.00
2018-10-21T22:19:25.673Z,83.23
2018-10-21T22:21:52.855Z,83.86
2018-10-21T22:24:20.008Z,82.91
2018-10-21T22:26:47.124Z,84.35
2018-10-21T22:29:14.229Z,84.09
2018-10-21T22:31:41.408Z,85.12
2018-10-21T22:34:08.582Z,84.68
2018-10-21T22:36:35.680Z,84.19
2018-10-21T22:39:03.353Z,82.88
2018-10-21T22:41:30.544Z,83.04
2018-10-21T22:43:57.715Z,82.28
2018-10-21T22:46:24.857Z,82.89
2018-10-21T22:48:52.084Z,82.45
2018-10-21T22:51:19.275Z,83.72
2018-10-21T22:53:46.456Z,83.65
2018-10-21T22:56:13.625Z,83.93
2018-10-21T22:58:40.730Z,83.49
2018-10-21T23:01:08.176Z,82.71
2018-10-21T23:03:35.296Z,82.66
2018-10-21T23:06:02.498Z,82.63
2018-10-21T23:08:29.675Z,82.85
2018-10-21T23:10:56.849Z,83.42
2018-10-21T23:13:24.012Z,83.44
2018-10-21T23:15:51.183Z,83.89
2018-10-21T23:18:18.501Z,83.03
2018-10-21T23:20:45.639Z,82.66
2018-10-21T23:23:12.807Z,83.79
2018-10-21T23:25:39.971Z,83.42
2018-10-21T23:28:07.155Z,82.91
2018-10-21T23:30:34.353Z,82.22
2018-10-21T23:33:01.518Z,82.13
2018-10-21T23:35:28.723Z,83.37
2018-10-21T23:37:55.856Z,83.92
2018-10-21T23:40:22.965Z,84.82
2018-10-21T23:42:50.116Z,83.86
2018-10-21T23:45:17.295Z,84.94
2018-10-21T23:47:44.424Z,85.11
2018-10-21T23:50:11.525Z,83.51
2018-10-21T23:52:38.655Z,83.21
2018-10-21T23:55:05.840Z,82.86
2018-10-21T23:57:32.976Z,82.35
